sensor_id;sensor_type;location;lat;lon;timestamp;P1;durP1;ratioP1;P2;durP2;ratioP2
51718;SDS011;37795;53.236;5.704;2022-09-09T00:04:35;13.30;;;7.13;;
51718;SDS011;37795;53.236;5.704;2022-09-09T00:10:00;11.45;;;7.43;;
51718;SDS011;37795;53.236;5.704;2022-09-09T00:21:17;11.75;;;8.20;;
51718;SDS011;37795;53.236;5.704;2022-09-09T00:26:30;10.90;;;8.63;;
51718;SDS011;37795;53.236;5.704;2022-09-09T00:31:37;9.37;;;7.80;;
51718;SDS011;37795;53.236;5.704;2022-09-09T00:36:47;10.55;;;8.43;;
51718;SDS011;37795;53.236;5.704;2022-09-09T00:42:14;9.68;;;8.77;;
51718;SDS011;37795;53.236;5.704;2022-09-09T00:44:53;11.93;;;8.32;;
51718;SDS011;37795;53.236;5.704;2022-09-09T00:50:22;14.18;;;8.98;;
51718;SDS011;37795;53.236;5.704;2022-09-09T00:53:38;9.05;;;7.88;;
51718;SDS011;37795;53.236;5.704;2022-09-09T00:58:31;9.85;;;8.55;;
51718;SDS011;37795;53.236;5.704;2022-09-09T01:01:09;9.35;;;8.45;;
51718;SDS011;37795;53.236;5.704;2022-09-09T01:03:37;11.20;;;8.32;;
51718;SDS011;37795;53.236;5.704;2022-09-09T01:17:01;9.57;;;8.48;;
51718;SDS011;37795;53.236;5.704;2022-09-09T01:22:15;13.05;;;8.20;;
51718;SDS011;37795;53.236;5.704;2022-09-09T01:25:11;10.90;;;8.02;;
51718;SDS011;37795;53.236;5.704;2022-09-09T01:27:42;12.45;;;8.02;;
51718;SDS011;37795;53.236;5.704;2022-09-09T01:30:12;10.07;;;8.20;;
51718;SDS011;37795;53.236;5.704;2022-09-09T01:35:23;9.55;;;8.45;;
51718;SDS011;37795;53.236;5.704;2022-09-09T01:37:58;8.93;;;7.70;;
51718;SDS011;37795;53.236;5.704;2022-09-09T01:40:24;9.57;;;8.68;;
51718;SDS011;37795;53.236;5.704;2022-09-09T01:42:51;9.18;;;8.18;;
51718;SDS011;37795;53.236;5.704;2022-09-09T01:45:18;12.10;;;7.88;;
51718;SDS011;37795;53.236;5.704;2022-09-09T01:47:44;9.15;;;7.65;;
51718;SDS011;37795;53.236;5.704;2022-09-09T01:50:11;10.68;;;8.60;;
51718;SDS011;37795;53.236;5.704;2022-09-09T01:52:39;9.82;;;8.68;;
51718;SDS011;37795;53.236;5.704;2022-09-09T01:55:06;10.32;;;9.05;;
51718;SDS011;37795;53.236;5.704;2022-09-09T01:57:45;10.50;;;8.43;;
51718;SDS011;37795;53.236;5.704;2022-09-09T02:00:23;9.18;;;8.38;;
51718;SDS011;37795;53.236;5.704;2022-09-09T02:02:59;11.57;;;9.45;;
51718;SDS011;37795;53.236;5.704;2022-09-09T02:05:40;10.23;;;8.87;;
51718;SDS011;37795;53.236;5.704;2022-09-09T02:08:33;9.43;;;7.55;;
51718;SDS011;37795;53.236;5.704;2022-09-09T02:11:11;11.25;;;9.57;;
51718;SDS011;37795;53.236;5.704;2022-09-09T02:13:40;11.52;;;9.80;;
51718;SDS011;37795;53.236;5.704;2022-09-09T02:16:22;9.48;;;8.48;;
51718;SDS011;37795;53.236;5.704;2022-09-09T02:18:51;10.68;;;8.40;;
51718;SDS011;37795;53.236;5.704;2022-09-09T02:21:34;10.60;;;8.50;;
51718;SDS011;37795;53.236;5.704;2022-09-09T02:24:02;10.95;;;8.00;;
51718;SDS011;37795;53.236;5.704;2022-09-09T02:26:31;10.57;;;8.88;;
51718;SDS011;37795;53.236;5.704;2022-09-09T02:29:01;11.55;;;8.13;;
51718;SDS011;37795;53.236;5.704;2022-09-09T02:31:29;11.20;;;8.60;;
51718;SDS011;37795;53.236;5.704;2022-09-09T02:33:58;8.25;;;7.50;;
51718;SDS011;37795;53.236;5.704;2022-09-09T02:36:27;11.10;;;7.70;;
51718;SDS011;37795;53.236;5.704;2022-09-09T02:38:58;11.07;;;8.70;;
51718;SDS011;37795;53.236;5.704;2022-09-09T02:41:32;8.77;;;7.88;;
51718;SDS011;37795;53.236;5.704;2022-09-09T02:43:59;8.60;;;7.87;;
51718;SDS011;37795;53.236;5.704;2022-09-09T02:46:42;9.13;;;7.63;;
51718;SDS011;37795;53.236;5.704;2022-09-09T02:52:26;8.50;;;7.70;;
51718;SDS011;37795;53.236;5.704;2022-09-09T02:55:00;9.40;;;7.85;;
51718;SDS011;37795;53.236;5.704;2022-09-09T02:57:36;10.02;;;8.68;;
51718;SDS011;37795;53.236;5.704;2022-09-09T03:00:04;9.27;;;8.30;;
51718;SDS011;37795;53.236;5.704;2022-09-09T03:02:30;10.07;;;8.25;;
51718;SDS011;37795;53.236;5.704;2022-09-09T03:04:56;10.73;;;8.20;;
51718;SDS011;37795;53.236;5.704;2022-09-09T03:07:21;9.82;;;8.80;;
51718;SDS011;37795;53.236;5.704;2022-09-09T03:09:47;9.68;;;8.68;;
51718;SDS011;37795;53.236;5.704;2022-09-09T03:12:13;10.90;;;9.13;;
51718;SDS011;37795;53.236;5.704;2022-09-09T03:14:39;11.87;;;8.50;;
51718;SDS011;37795;53.236;5.704;2022-09-09T03:17:05;10.70;;;8.17;;
51718;SDS011;37795;53.236;5.704;2022-09-09T03:19:31;12.35;;;8.73;;
51718;SDS011;37795;53.236;5.704;2022-09-09T03:21:58;9.05;;;8.15;;
51718;SDS011;37795;53.236;5.704;2022-09-09T03:24:24;11.17;;;9.13;;
51718;SDS011;37795;53.236;5.704;2022-09-09T03:26:50;13.20;;;8.57;;
51718;SDS011;37795;53.236;5.704;2022-09-09T03:29:16;9.07;;;8.27;;
51718;SDS011;37795;53.236;5.704;2022-09-09T03:31:43;12.25;;;9.30;;
51718;SDS011;37795;53.236;5.704;2022-09-09T03:34:09;10.55;;;9.55;;
51718;SDS011;37795;53.236;5.704;2022-09-09T03:36:36;15.07;;;8.90;;
51718;SDS011;37795;53.236;5.704;2022-09-09T03:39:02;11.60;;;9.57;;
51718;SDS011;37795;53.236;5.704;2022-09-09T03:41:29;11.27;;;9.30;;
51718;SDS011;37795;53.236;5.704;2022-09-09T03:43:55;12.73;;;9.00;;
51718;SDS011;37795;53.236;5.704;2022-09-09T03:46:22;11.45;;;9.40;;
51718;SDS011;37795;53.236;5.704;2022-09-09T03:48:49;9.05;;;8.20;;
51718;SDS011;37795;53.236;5.704;2022-09-09T03:51:15;10.38;;;8.25;;
51718;SDS011;37795;53.236;5.704;2022-09-09T03:53:41;9.93;;;8.93;;
51718;SDS011;37795;53.236;5.704;2022-09-09T03:56:08;10.80;;;8.65;;
51718;SDS011;37795;53.236;5.704;2022-09-09T03:58:34;9.50;;;8.50;;
51718;SDS011;37795;53.236;5.704;2022-09-09T04:01:11;13.02;;;8.40;;
51718;SDS011;37795;53.236;5.704;2022-09-09T04:03:38;12.77;;;8.48;;
51718;SDS011;37795;53.236;5.704;2022-09-09T04:06:04;8.65;;;7.80;;
51718;SDS011;37795;53.236;5.704;2022-09-09T04:08:32;14.07;;;8.38;;
51718;SDS011;37795;53.236;5.704;2022-09-09T04:10:59;12.52;;;8.55;;
51718;SDS011;37795;53.236;5.704;2022-09-09T04:13:27;14.60;;;8.27;;
51718;SDS011;37795;53.236;5.704;2022-09-09T04:15:54;12.13;;;7.68;;
51718;SDS011;37795;53.236;5.704;2022-09-09T04:18:21;8.07;;;7.20;;
51718;SDS011;37795;53.236;5.704;2022-09-09T04:20:50;8.45;;;7.65;;
51718;SDS011;37795;53.236;5.704;2022-09-09T04:23:17;9.20;;;7.55;;
51718;SDS011;37795;53.236;5.704;2022-09-09T04:25:45;8.40;;;7.60;;
51718;SDS011;37795;53.236;5.704;2022-09-09T04:28:13;9.00;;;8.10;;
51718;SDS011;37795;53.236;5.704;2022-09-09T04:30:40;9.32;;;7.05;;
51718;SDS011;37795;53.236;5.704;2022-09-09T04:33:06;9.27;;;7.47;;
51718;SDS011;37795;53.236;5.704;2022-09-09T04:35:32;8.38;;;7.45;;
51718;SDS011;37795;53.236;5.704;2022-09-09T04:37:59;14.48;;;7.03;;
51718;SDS011;37795;53.236;5.704;2022-09-09T04:40:24;7.78;;;7.10;;
51718;SDS011;37795;53.236;5.704;2022-09-09T04:42:50;8.00;;;6.80;;
51718;SDS011;37795;53.236;5.704;2022-09-09T04:45:16;8.93;;;7.50;;
51718;SDS011;37795;53.236;5.704;2022-09-09T04:47:43;7.93;;;7.13;;
51718;SDS011;37795;53.236;5.704;2022-09-09T04:50:09;7.90;;;6.90;;
51718;SDS011;37795;53.236;5.704;2022-09-09T04:52:35;8.18;;;7.35;;
51718;SDS011;37795;53.236;5.704;2022-09-09T04:55:01;7.70;;;6.40;;
51718;SDS011;37795;53.236;5.704;2022-09-09T04:57:27;13.35;;;7.05;;
51718;SDS011;37795;53.236;5.704;2022-09-09T04:59:53;8.70;;;6.35;;
51718;SDS011;37795;53.236;5.704;2022-09-09T05:02:19;8.65;;;6.50;;
51718;SDS011;37795;53.236;5.704;2022-09-09T05:04:45;8.40;;;6.93;;
51718;SDS011;37795;53.236;5.704;2022-09-09T05:07:11;7.63;;;6.05;;
51718;SDS011;37795;53.236;5.704;2022-09-09T05:09:36;13.15;;;6.40;;
51718;SDS011;37795;53.236;5.704;2022-09-09T05:12:02;6.95;;;6.05;;
51718;SDS011;37795;53.236;5.704;2022-09-09T05:14:28;8.30;;;6.65;;
51718;SDS011;37795;53.236;5.704;2022-09-09T05:16:55;8.90;;;6.93;;
51718;SDS011;37795;53.236;5.704;2022-09-09T05:19:21;7.38;;;6.53;;
51718;SDS011;37795;53.236;5.704;2022-09-09T05:21:47;8.97;;;6.40;;
51718;SDS011;37795;53.236;5.704;2022-09-09T05:24:13;9.70;;;6.95;;
51718;SDS011;37795;53.236;5.704;2022-09-09T05:26:38;7.83;;;6.73;;
51718;SDS011;37795;53.236;5.704;2022-09-09T05:29:04;7.73;;;6.90;;
51718;SDS011;37795;53.236;5.704;2022-09-09T05:31:31;10.93;;;7.30;;
51718;SDS011;37795;53.236;5.704;2022-09-09T05:33:58;11.20;;;7.07;;
51718;SDS011;37795;53.236;5.704;2022-09-09T05:36:24;11.03;;;7.07;;
51718;SDS011;37795;53.236;5.704;2022-09-09T05:38:50;9.70;;;6.80;;
51718;SDS011;37795;53.236;5.704;2022-09-09T05:41:16;11.93;;;7.03;;
51718;SDS011;37795;53.236;5.704;2022-09-09T05:43:43;9.82;;;7.65;;
51718;SDS011;37795;53.236;5.704;2022-09-09T05:48:40;13.00;;;7.68;;
51718;SDS011;37795;53.236;5.704;2022-09-09T05:51:10;7.77;;;7.07;;
51718;SDS011;37795;53.236;5.704;2022-09-09T05:53:40;9.23;;;7.95;;
51718;SDS011;37795;53.236;5.704;2022-09-09T05:56:08;10.43;;;8.80;;
51718;SDS011;37795;53.236;5.704;2022-09-09T05:58:35;10.77;;;8.17;;
51718;SDS011;37795;53.236;5.704;2022-09-09T06:01:06;14.43;;;9.27;;
51718;SDS011;37795;53.236;5.704;2022-09-09T06:03:36;14.45;;;9.52;;
51718;SDS011;37795;53.236;5.704;2022-09-09T06:06:04;9.15;;;8.15;;
51718;SDS011;37795;53.236;5.704;2022-09-09T06:08:35;10.25;;;9.23;;
51718;SDS011;37795;53.236;5.704;2022-09-09T06:11:04;10.15;;;9.15;;
51718;SDS011;37795;53.236;5.704;2022-09-09T06:13:42;10.50;;;9.38;;
51718;SDS011;37795;53.236;5.704;2022-09-09T06:16:09;10.68;;;9.38;;
51718;SDS011;37795;53.236;5.704;2022-09-09T06:18:39;10.73;;;8.90;;
51718;SDS011;37795;53.236;5.704;2022-09-09T06:21:07;11.43;;;9.65;;
51718;SDS011;37795;53.236;5.704;2022-09-09T06:23:43;12.02;;;10.38;;
51718;SDS011;37795;53.236;5.704;2022-09-09T06:28:40;12.88;;;11.57;;
51718;SDS011;37795;53.236;5.704;2022-09-09T06:31:08;18.13;;;10.82;;
51718;SDS011;37795;53.236;5.704;2022-09-09T06:33:36;10.82;;;9.82;;
51718;SDS011;37795;53.236;5.704;2022-09-09T06:36:06;11.70;;;10.50;;
51718;SDS011;37795;53.236;5.704;2022-09-09T06:38:36;14.20;;;10.20;;
51718;SDS011;37795;53.236;5.704;2022-09-09T06:41:01;12.37;;;11.07;;
51718;SDS011;37795;53.236;5.704;2022-09-09T06:43:27;10.83;;;9.73;;
51718;SDS011;37795;53.236;5.704;2022-09-09T06:45:58;13.40;;;10.00;;
51718;SDS011;37795;53.236;5.704;2022-09-09T06:48:25;11.40;;;10.30;;
51718;SDS011;37795;53.236;5.704;2022-09-09T07:00:29;11.07;;;9.23;;
51718;SDS011;37795;53.236;5.704;2022-09-09T07:02:55;10.10;;;9.05;;
51718;SDS011;37795;53.236;5.704;2022-09-09T07:05:21;12.60;;;9.13;;
51718;SDS011;37795;53.236;5.704;2022-09-09T07:07:46;11.00;;;8.77;;
51718;SDS011;37795;53.236;5.704;2022-09-09T07:10:12;9.57;;;8.57;;
51718;SDS011;37795;53.236;5.704;2022-09-09T07:12:38;10.98;;;8.32;;
51718;SDS011;37795;53.236;5.704;2022-09-09T07:15:03;12.75;;;9.02;;
51718;SDS011;37795;53.236;5.704;2022-09-09T07:17:30;9.70;;;8.60;;
51718;SDS011;37795;53.236;5.704;2022-09-09T07:19:55;12.55;;;8.80;;
51718;SDS011;37795;53.236;5.704;2022-09-09T07:22:21;9.90;;;8.25;;
51718;SDS011;37795;53.236;5.704;2022-09-09T07:24:47;11.68;;;8.88;;
51718;SDS011;37795;53.236;5.704;2022-09-09T07:27:14;10.10;;;8.60;;
51718;SDS011;37795;53.236;5.704;2022-09-09T07:29:40;9.23;;;8.23;;
51718;SDS011;37795;53.236;5.704;2022-09-09T07:32:05;10.00;;;8.33;;
51718;SDS011;37795;53.236;5.704;2022-09-09T07:34:31;9.85;;;8.73;;
51718;SDS011;37795;53.236;5.704;2022-09-09T07:36:57;11.18;;;7.68;;
51718;SDS011;37795;53.236;5.704;2022-09-09T07:39:23;14.68;;;8.18;;
51718;SDS011;37795;53.236;5.704;2022-09-09T07:41:48;12.33;;;8.33;;
51718;SDS011;37795;53.236;5.704;2022-09-09T07:44:20;9.60;;;7.53;;
51718;SDS011;37795;53.236;5.704;2022-09-09T07:46:47;8.67;;;7.23;;
51718;SDS011;37795;53.236;5.704;2022-09-09T07:49:13;8.48;;;7.55;;
51718;SDS011;37795;53.236;5.704;2022-09-09T07:51:40;9.13;;;7.32;;
51718;SDS011;37795;53.236;5.704;2022-09-09T07:54:09;8.65;;;7.68;;
51718;SDS011;37795;53.236;5.704;2022-09-09T07:56:36;10.40;;;7.75;;
51718;SDS011;37795;53.236;5.704;2022-09-09T07:59:04;7.50;;;6.57;;
51718;SDS011;37795;53.236;5.704;2022-09-09T08:01:49;9.30;;;6.70;;
51718;SDS011;37795;53.236;5.704;2022-09-09T08:04:19;8.95;;;6.93;;
51718;SDS011;37795;53.236;5.704;2022-09-09T08:06:50;7.28;;;6.53;;
51718;SDS011;37795;53.236;5.704;2022-09-09T08:09:18;11.05;;;7.25;;
51718;SDS011;37795;53.236;5.704;2022-09-09T08:11:44;9.00;;;6.57;;
51718;SDS011;37795;53.236;5.704;2022-09-09T08:14:10;10.10;;;7.40;;
51718;SDS011;37795;53.236;5.704;2022-09-09T08:16:40;7.60;;;6.82;;
51718;SDS011;37795;53.236;5.704;2022-09-09T08:19:08;8.75;;;6.90;;
51718;SDS011;37795;53.236;5.704;2022-09-09T08:21:35;13.05;;;7.40;;
51718;SDS011;37795;53.236;5.704;2022-09-09T08:24:05;10.37;;;6.50;;
51718;SDS011;37795;53.236;5.704;2022-09-09T08:26:35;7.50;;;6.68;;
51718;SDS011;37795;53.236;5.704;2022-09-09T08:29:04;9.93;;;6.78;;
51718;SDS011;37795;53.236;5.704;2022-09-09T08:31:38;8.88;;;6.13;;
51718;SDS011;37795;53.236;5.704;2022-09-09T08:34:06;9.23;;;6.68;;
51718;SDS011;37795;53.236;5.704;2022-09-09T08:36:33;9.25;;;6.63;;
51718;SDS011;37795;53.236;5.704;2022-09-09T08:39:02;11.60;;;7.13;;
51718;SDS011;37795;53.236;5.704;2022-09-09T08:44:32;7.50;;;5.45;;
51718;SDS011;37795;53.236;5.704;2022-09-09T08:52:28;9.40;;;5.80;;
51718;SDS011;37795;53.236;5.704;2022-09-09T08:54:56;9.87;;;5.80;;
51718;SDS011;37795;53.236;5.704;2022-09-09T08:57:28;8.18;;;5.18;;
51718;SDS011;37795;53.236;5.704;2022-09-09T08:59:56;12.55;;;5.75;;
51718;SDS011;37795;53.236;5.704;2022-09-09T09:11:16;8.23;;;4.80;;
51718;SDS011;37795;53.236;5.704;2022-09-09T09:13:44;7.28;;;5.13;;
51718;SDS011;37795;53.236;5.704;2022-09-09T09:16:24;9.65;;;5.68;;
51718;SDS011;37795;53.236;5.704;2022-09-09T09:18:51;6.88;;;5.30;;
51718;SDS011;37795;53.236;5.704;2022-09-09T09:21:27;7.25;;;5.65;;
51718;SDS011;37795;53.236;5.704;2022-09-09T09:23:59;9.63;;;5.70;;
51718;SDS011;37795;53.236;5.704;2022-09-09T09:26:30;8.85;;;5.85;;
51718;SDS011;37795;53.236;5.704;2022-09-09T09:28:59;6.18;;;4.85;;
51718;SDS011;37795;53.236;5.704;2022-09-09T09:31:27;10.65;;;5.10;;
51718;SDS011;37795;53.236;5.704;2022-09-09T09:33:53;7.80;;;4.93;;
51718;SDS011;37795;53.236;5.704;2022-09-09T09:36:24;6.77;;;5.13;;
51718;SDS011;37795;53.236;5.704;2022-09-09T09:39:22;7.90;;;4.78;;
51718;SDS011;37795;53.236;5.704;2022-09-09T09:41:52;7.15;;;4.63;;
51718;SDS011;37795;53.236;5.704;2022-09-09T09:44:24;8.38;;;4.18;;
51718;SDS011;37795;53.236;5.704;2022-09-09T09:49:33;5.72;;;4.13;;
51718;SDS011;37795;53.236;5.704;2022-09-09T09:52:05;5.15;;;3.65;;
51718;SDS011;37795;53.236;5.704;2022-09-09T09:54:39;9.25;;;4.78;;
51718;SDS011;37795;53.236;5.704;2022-09-09T09:57:08;10.82;;;4.10;;
51718;SDS011;37795;53.236;5.704;2022-09-09T09:59:38;8.25;;;3.70;;
51718;SDS011;37795;53.236;5.704;2022-09-09T10:04:59;6.47;;;3.47;;
51718;SDS011;37795;53.236;5.704;2022-09-09T10:07:26;7.38;;;3.53;;
51718;SDS011;37795;53.236;5.704;2022-09-09T10:09:53;7.25;;;4.15;;
51718;SDS011;37795;53.236;5.704;2022-09-09T10:15:24;10.32;;;3.53;;
51718;SDS011;37795;53.236;5.704;2022-09-09T10:21:41;11.18;;;4.00;;
51718;SDS011;37795;53.236;5.704;2022-09-09T10:26:34;7.90;;;3.28;;
51718;SDS011;37795;53.236;5.704;2022-09-09T10:34:48;8.55;;;3.35;;
51718;SDS011;37795;53.236;5.704;2022-09-09T10:39:53;6.22;;;3.13;;
51718;SDS011;37795;53.236;5.704;2022-09-09T10:42:39;6.97;;;3.40;;
51718;SDS011;37795;53.236;5.704;2022-09-09T10:47:47;4.95;;;2.97;;
51718;SDS011;37795;53.236;5.704;2022-09-09T11:03:04;10.25;;;3.10;;
51718;SDS011;37795;53.236;5.704;2022-09-09T11:05:42;8.02;;;3.83;;
51718;SDS011;37795;53.236;5.704;2022-09-09T11:08:18;7.18;;;3.03;;
51718;SDS011;37795;53.236;5.704;2022-09-09T11:21:48;6.68;;;2.80;;
51718;SDS011;37795;53.236;5.704;2022-09-09T11:35:02;8.43;;;3.40;;
51718;SDS011;37795;53.236;5.704;2022-09-09T11:37:39;7.70;;;3.20;;
51718;SDS011;37795;53.236;5.704;2022-09-09T11:40:30;8.98;;;2.97;;
51718;SDS011;37795;53.236;5.704;2022-09-09T11:46:10;7.43;;;3.05;;
51718;SDS011;37795;53.236;5.704;2022-09-09T11:48:43;5.78;;;2.63;;
51718;SDS011;37795;53.236;5.704;2022-09-09T11:51:27;12.38;;;3.03;;
51718;SDS011;37795;53.236;5.704;2022-09-09T11:53:58;7.30;;;2.50;;
51718;SDS011;37795;53.236;5.704;2022-09-09T11:56:43;5.50;;;2.60;;
51718;SDS011;37795;53.236;5.704;2022-09-09T11:59:19;5.95;;;2.40;;
51718;SDS011;37795;53.236;5.704;2022-09-09T12:01:50;5.45;;;2.45;;
51718;SDS011;37795;53.236;5.704;2022-09-09T12:04:39;7.85;;;2.88;;
51718;SDS011;37795;53.236;5.704;2022-09-09T12:12:27;8.85;;;3.40;;
51718;SDS011;37795;53.236;5.704;2022-09-09T12:17:45;8.70;;;2.47;;
51718;SDS011;37795;53.236;5.704;2022-09-09T12:25:55;6.23;;;2.70;;
51718;SDS011;37795;53.236;5.704;2022-09-09T12:36:55;6.97;;;3.33;;
51718;SDS011;37795;53.236;5.704;2022-09-09T12:39:29;6.80;;;2.97;;
51718;SDS011;37795;53.236;5.704;2022-09-09T12:42:02;6.25;;;3.55;;
51718;SDS011;37795;53.236;5.704;2022-09-09T12:44:29;6.70;;;2.57;;
51718;SDS011;37795;53.236;5.704;2022-09-09T12:46:55;5.78;;;2.25;;
51718;SDS011;37795;53.236;5.704;2022-09-09T12:52:06;8.15;;;3.35;;
51718;SDS011;37795;53.236;5.704;2022-09-09T12:54:38;6.07;;;2.50;;
51718;SDS011;37795;53.236;5.704;2022-09-09T12:57:11;5.50;;;2.50;;
51718;SDS011;37795;53.236;5.704;2022-09-09T12:59:39;7.37;;;2.87;;
51718;SDS011;37795;53.236;5.704;2022-09-09T13:02:23;5.80;;;2.70;;
51718;SDS011;37795;53.236;5.704;2022-09-09T13:04:51;7.73;;;2.77;;
51718;SDS011;37795;53.236;5.704;2022-09-09T13:07:18;7.53;;;2.75;;
51718;SDS011;37795;53.236;5.704;2022-09-09T13:09:45;4.15;;;2.42;;
51718;SDS011;37795;53.236;5.704;2022-09-09T13:12:16;4.00;;;2.30;;
51718;SDS011;37795;53.236;5.704;2022-09-09T13:14:51;7.70;;;2.90;;
51718;SDS011;37795;53.236;5.704;2022-09-09T13:17:26;3.90;;;2.15;;
51718;SDS011;37795;53.236;5.704;2022-09-09T13:19:56;4.97;;;2.33;;
51718;SDS011;37795;53.236;5.704;2022-09-09T13:25:17;5.10;;;2.30;;
51718;SDS011;37795;53.236;5.704;2022-09-09T13:27:51;7.38;;;2.67;;
51718;SDS011;37795;53.236;5.704;2022-09-09T13:30:25;7.60;;;3.00;;
51718;SDS011;37795;53.236;5.704;2022-09-09T13:33:01;6.93;;;2.78;;
51718;SDS011;37795;53.236;5.704;2022-09-09T13:35:27;8.50;;;2.60;;
51718;SDS011;37795;53.236;5.704;2022-09-09T13:37:53;6.03;;;2.38;;
51718;SDS011;37795;53.236;5.704;2022-09-09T13:40:19;5.97;;;2.30;;
51718;SDS011;37795;53.236;5.704;2022-09-09T13:42:47;4.60;;;1.83;;
51718;SDS011;37795;53.236;5.704;2022-09-09T13:45:23;4.80;;;2.07;;
51718;SDS011;37795;53.236;5.704;2022-09-09T13:47:52;7.70;;;2.42;;
51718;SDS011;37795;53.236;5.704;2022-09-09T13:52:51;5.25;;;2.00;;
51718;SDS011;37795;53.236;5.704;2022-09-09T13:55:22;6.07;;;2.38;;
51718;SDS011;37795;53.236;5.704;2022-09-09T13:57:52;4.88;;;2.53;;
51718;SDS011;37795;53.236;5.704;2022-09-09T14:00:19;5.10;;;2.40;;
51718;SDS011;37795;53.236;5.704;2022-09-09T14:02:47;4.57;;;2.00;;
51718;SDS011;37795;53.236;5.704;2022-09-09T14:05:13;4.10;;;2.20;;
51718;SDS011;37795;53.236;5.704;2022-09-09T14:07:40;4.17;;;2.17;;
51718;SDS011;37795;53.236;5.704;2022-09-09T14:10:07;8.27;;;2.73;;
51718;SDS011;37795;53.236;5.704;2022-09-09T14:12:34;3.40;;;2.47;;
51718;SDS011;37795;53.236;5.704;2022-09-09T14:15:00;4.90;;;2.78;;
51718;SDS011;37795;53.236;5.704;2022-09-09T14:17:26;5.72;;;2.80;;
51718;SDS011;37795;53.236;5.704;2022-09-09T14:19:55;4.93;;;2.30;;
51718;SDS011;37795;53.236;5.704;2022-09-09T14:22:21;6.15;;;2.42;;
51718;SDS011;37795;53.236;5.704;2022-09-09T14:24:47;5.95;;;2.70;;
51718;SDS011;37795;53.236;5.704;2022-09-09T14:27:13;6.03;;;2.35;;
51718;SDS011;37795;53.236;5.704;2022-09-09T14:29:39;5.20;;;2.75;;
51718;SDS011;37795;53.236;5.704;2022-09-09T14:32:04;6.13;;;2.42;;
51718;SDS011;37795;53.236;5.704;2022-09-09T14:34:30;6.38;;;2.83;;
51718;SDS011;37795;53.236;5.704;2022-09-09T14:36:57;3.67;;;1.88;;
51718;SDS011;37795;53.236;5.704;2022-09-09T14:39:23;5.72;;;2.33;;
51718;SDS011;37795;53.236;5.704;2022-09-09T14:41:49;3.60;;;1.80;;
51718;SDS011;37795;53.236;5.704;2022-09-09T14:44:15;2.00;;;1.42;;
51718;SDS011;37795;53.236;5.704;2022-09-09T14:46:41;4.53;;;1.83;;
51718;SDS011;37795;53.236;5.704;2022-09-09T14:49:09;6.60;;;2.10;;
51718;SDS011;37795;53.236;5.704;2022-09-09T14:51:35;5.00;;;2.25;;
51718;SDS011;37795;53.236;5.704;2022-09-09T14:54:01;5.57;;;2.10;;
51718;SDS011;37795;53.236;5.704;2022-09-09T14:56:28;4.00;;;1.77;;
51718;SDS011;37795;53.236;5.704;2022-09-09T14:58:56;3.53;;;1.83;;
51718;SDS011;37795;53.236;5.704;2022-09-09T15:01:23;3.30;;;1.85;;
51718;SDS011;37795;53.236;5.704;2022-09-09T15:03:57;5.72;;;2.42;;
51718;SDS011;37795;53.236;5.704;2022-09-09T15:06:24;4.40;;;2.30;;
51718;SDS011;37795;53.236;5.704;2022-09-09T15:08:52;9.02;;;2.58;;
51718;SDS011;37795;53.236;5.704;2022-09-09T15:11:19;3.63;;;1.65;;
51718;SDS011;37795;53.236;5.704;2022-09-09T15:13:45;3.53;;;1.80;;
51718;SDS011;37795;53.236;5.704;2022-09-09T15:18:39;4.10;;;2.15;;
51718;SDS011;37795;53.236;5.704;2022-09-09T15:21:08;4.90;;;2.10;;
51718;SDS011;37795;53.236;5.704;2022-09-09T15:23:38;5.95;;;2.25;;
51718;SDS011;37795;53.236;5.704;2022-09-09T15:26:04;3.23;;;1.80;;
51718;SDS011;37795;53.236;5.704;2022-09-09T15:28:31;3.63;;;2.10;;
51718;SDS011;37795;53.236;5.704;2022-09-09T15:31:04;3.20;;;1.70;;
51718;SDS011;37795;53.236;5.704;2022-09-09T15:33:32;4.00;;;2.10;;
51718;SDS011;37795;53.236;5.704;2022-09-09T15:35:58;5.53;;;2.42;;
51718;SDS011;37795;53.236;5.704;2022-09-09T15:38:24;4.97;;;2.33;;
51718;SDS011;37795;53.236;5.704;2022-09-09T15:40:56;5.18;;;2.92;;
51718;SDS011;37795;53.236;5.704;2022-09-09T15:43:22;6.05;;;3.03;;
51718;SDS011;37795;53.236;5.704;2022-09-09T15:45:49;5.55;;;3.40;;
51718;SDS011;37795;53.236;5.704;2022-09-09T15:48:23;5.97;;;3.53;;
51718;SDS011;37795;53.236;5.704;2022-09-09T15:51:02;5.68;;;3.42;;
51718;SDS011;37795;53.236;5.704;2022-09-09T15:53:29;5.43;;;3.30;;
51718;SDS011;37795;53.236;5.704;2022-09-09T15:55:57;5.18;;;3.58;;
51718;SDS011;37795;53.236;5.704;2022-09-09T15:58:24;4.57;;;3.10;;
51718;SDS011;37795;53.236;5.704;2022-09-09T16:00:50;5.30;;;3.83;;
51718;SDS011;37795;53.236;5.704;2022-09-09T16:03:16;5.57;;;3.30;;
51718;SDS011;37795;53.236;5.704;2022-09-09T16:05:42;7.80;;;3.80;;
51718;SDS011;37795;53.236;5.704;2022-09-09T16:08:08;5.53;;;3.83;;
51718;SDS011;37795;53.236;5.704;2022-09-09T16:10:34;8.03;;;4.10;;
51718;SDS011;37795;53.236;5.704;2022-09-09T16:12:59;6.77;;;3.67;;
51718;SDS011;37795;53.236;5.704;2022-09-09T16:15:25;4.17;;;3.27;;
51718;SDS011;37795;53.236;5.704;2022-09-09T16:17:53;4.93;;;3.30;;
51718;SDS011;37795;53.236;5.704;2022-09-09T16:20:18;5.13;;;3.47;;
51718;SDS011;37795;53.236;5.704;2022-09-09T16:22:45;7.45;;;4.10;;
51718;SDS011;37795;53.236;5.704;2022-09-09T16:25:11;6.45;;;3.38;;
51718;SDS011;37795;53.236;5.704;2022-09-09T16:27:37;6.85;;;3.70;;
51718;SDS011;37795;53.236;5.704;2022-09-09T16:30:02;8.77;;;4.18;;
51718;SDS011;37795;53.236;5.704;2022-09-09T16:32:28;7.67;;;3.67;;
51718;SDS011;37795;53.236;5.704;2022-09-09T16:34:54;3.70;;;2.78;;
51718;SDS011;37795;53.236;5.704;2022-09-09T16:37:20;3.20;;;1.65;;
51718;SDS011;37795;53.236;5.704;2022-09-09T16:39:46;3.00;;;1.40;;
51718;SDS011;37795;53.236;5.704;2022-09-09T16:42:11;6.45;;;1.92;;
51718;SDS011;37795;53.236;5.704;2022-09-09T16:47:02;3.60;;;1.40;;
51718;SDS011;37795;53.236;5.704;2022-09-09T16:49:28;2.22;;;1.23;;
51718;SDS011;37795;53.236;5.704;2022-09-09T16:51:56;2.77;;;0.80;;
51718;SDS011;37795;53.236;5.704;2022-09-09T16:54:23;1.20;;;1.05;;
51718;SDS011;37795;53.236;5.704;2022-09-09T16:56:50;2.10;;;1.00;;
51718;SDS011;37795;53.236;5.704;2022-09-09T16:59:17;0.80;;;0.73;;
51718;SDS011;37795;53.236;5.704;2022-09-09T17:01:44;1.25;;;0.80;;
51718;SDS011;37795;53.236;5.704;2022-09-09T17:04:15;2.58;;;0.93;;
51718;SDS011;37795;53.236;5.704;2022-09-09T17:06:46;1.60;;;1.08;;
51718;SDS011;37795;53.236;5.704;2022-09-09T19:00:29;8.93;;;6.17;;
51718;SDS011;37795;53.236;5.704;2022-09-09T19:02:56;7.05;;;5.88;;
51718;SDS011;37795;53.236;5.704;2022-09-09T19:05:22;7.90;;;5.57;;
51718;SDS011;37795;53.236;5.704;2022-09-09T19:07:47;7.25;;;5.43;;
51718;SDS011;37795;53.236;5.704;2022-09-09T19:10:13;6.50;;;5.45;;
51718;SDS011;37795;53.236;5.704;2022-09-09T19:12:39;6.27;;;5.27;;
51718;SDS011;37795;53.236;5.704;2022-09-09T19:15:05;7.40;;;4.85;;
51718;SDS011;37795;53.236;5.704;2022-09-09T19:17:31;5.93;;;4.72;;
51718;SDS011;37795;53.236;5.704;2022-09-09T19:19:58;7.90;;;4.82;;
51718;SDS011;37795;53.236;5.704;2022-09-09T19:22:24;7.40;;;5.00;;
51718;SDS011;37795;53.236;5.704;2022-09-09T19:24:50;6.57;;;5.55;;
51718;SDS011;37795;53.236;5.704;2022-09-09T19:27:16;5.78;;;5.15;;
51718;SDS011;37795;53.236;5.704;2022-09-09T19:29:41;5.47;;;4.63;;
51718;SDS011;37795;53.236;5.704;2022-09-09T19:32:08;6.22;;;4.85;;
51718;SDS011;37795;53.236;5.704;2022-09-09T19:34:35;5.05;;;4.43;;
51718;SDS011;37795;53.236;5.704;2022-09-09T19:37:02;4.38;;;3.75;;
51718;SDS011;37795;53.236;5.704;2022-09-09T19:39:28;4.65;;;4.15;;
51718;SDS011;37795;53.236;5.704;2022-09-09T19:41:55;6.13;;;4.47;;
51718;SDS011;37795;53.236;5.704;2022-09-09T19:44:21;6.25;;;4.57;;
51718;SDS011;37795;53.236;5.704;2022-09-09T19:46:46;6.93;;;4.97;;